Time;durP1;ratioP1;P1;durP2;ratioP2;P2;SDS_P1;SDS_P2;PMS_P1;PMS_P2;Temp;Humidity;BMP_temperature;BMP_pressure;BME280_temperature;BME280_humidity;BME280_pressure;Samples;Min_cycle;Max_cycle;Signal;HPM_P1;HPM_P2
2022/01/07 00:01:20;;;;;;;9.27;3.33;;;;;;;-142.75;100.00;78287.16;5014687;28;20021;-67
2022/01/07 00:03:45;;;;;;;8.02;3.85;;;;;;;-142.75;100.00;78275.34;5014612;28;20096;-66
2022/01/07 00:06:10;;;;;;;11.85;3.80;;;;;;;-142.75;100.00;78257.63;5014482;28;20014;-67
2022/01/07 00:08:36;;;;;;;11.77;3.40;;;;;;;-142.75;100.00;78259.59;5014263;28;20430;-67
2022/01/07 00:11:01;;;;;;;12.18;3.50;;;;;;;-142.75;100.00;78265.50;5014394;28;20097;-66
2022/01/07 00:13:27;;;;;;;11.52;3.53;;;;;;;-142.75;100.00;78247.78;5014482;28;20025;-65
2022/01/07 00:15:54;;;;;;;11.07;3.50;;;;;;;-142.75;100.00;78239.91;4996514;28;20058;-66
2022/01/07 00:18:20;;;;;;;9.30;2.90;;;;;;;-142.75;100.00;78235.97;5033831;28;20075;-67
2022/01/07 00:20:45;;;;;;;10.93;3.50;;;;;;;-142.75;100.00;78222.19;5020298;28;20101;-66
2022/01/07 00:23:11;;;;;;;9.13;3.45;;;;;;;-142.75;100.00;78226.13;5014285;28;20064;-67
2022/01/07 00:25:36;;;;;;;15.38;3.00;;;;;;;-142.75;100.00;78218.25;5014141;28;20024;-66
2022/01/07 00:28:02;;;;;;;12.98;2.90;;;;;;;-142.75;100.00;78210.38;5013730;28;20546;-66
2022/01/07 00:30:27;;;;;;;7.60;3.10;;;;;;;-142.75;100.00;78208.41;4997521;28;20017;-66
2022/01/07 00:32:52;;;;;;;8.13;2.85;;;;;;;-142.75;100.00;78190.69;4998105;28;20022;-66
2022/01/07 00:35:19;;;;;;;11.73;2.67;;;;;;;-142.75;100.00;78188.72;5015434;28;20599;-66
2022/01/07 00:37:46;;;;;;;9.17;2.90;;;;;;;-142.75;100.00;78186.75;4997868;28;20053;-66
2022/01/07 00:40:19;;;;;;;8.93;3.07;;;;;;;-142.75;100.00;78204.47;5015258;28;20041;-67
2022/01/07 00:42:51;;;;;;;6.70;2.83;;;;;;;-142.75;100.00;78188.72;5015336;28;20028;-66
2022/01/07 00:45:21;;;;;;;9.87;2.87;;;;;;;-142.75;100.00;78180.81;5014075;28;20033;-66
2022/01/07 00:47:47;;;;;;;8.67;3.00;;;;;;;-142.75;100.00;78190.69;5013931;28;20022;-65
2022/01/07 00:50:14;;;;;;;9.05;3.70;;;;;;;-142.75;100.00;78204.47;5012666;28;20509;-66
2022/01/07 00:52:40;;;;;;;9.73;3.40;;;;;;;-142.75;100.00;78210.38;5013936;28;20041;-67
2022/01/07 00:55:08;;;;;;;8.77;3.30;;;;;;;-142.75;100.00;78212.34;5013670;28;20030;-66
2022/01/07 00:57:33;;;;;;;11.97;3.60;;;;;;;-142.75;100.00;78218.25;4996309;28;20366;-66
2022/01/07 00:59:58;;;;;;;10.77;3.40;;;;;;;-142.75;100.00;78232.03;4995859;28;20018;-66
2022/01/07 01:02:24;;;;;;;20.13;4.10;;;;;;;-142.75;100.00;78222.19;5013663;28;20029;-66
2022/01/07 01:04:49;;;;;;;14.60;3.97;;;;;;;-142.75;100.00;78222.19;5013544;28;20269;-66
2022/01/07 01:07:16;;;;;;;9.55;3.40;;;;;;;-142.75;100.00;78224.16;5013598;28;20022;-66
2022/01/07 01:09:42;;;;;;;;;;;;;;;-142.75;100.00;78234.00;5021035;28;20021;-66
2022/01/07 01:12:08;;;;;;;11.37;3.97;;;;;;;-142.75;100.00;78235.97;5032131;28;20059;-66
2022/01/07 01:14:34;;;;;;;12.43;5.60;;;;;;;-142.75;100.00;78234.00;5032950;28;20032;-66
2022/01/07 01:17:00;;;;;;;12.18;4.47;;;;;;;-142.75;100.00;78235.97;5033261;28;20019;-67
2022/01/07 01:19:26;;;;;;;14.35;4.88;;;;;;;-142.75;100.00;78241.88;5032881;28;20032;-67
2022/01/07 01:21:52;;;;;;;17.73;5.33;;;;;;;-142.75;100.00;78241.88;5033061;28;20021;-66
2022/01/07 01:24:18;;;;;;;9.95;4.90;;;;;;;-142.75;100.00;78247.78;5033059;28;20018;-66
2022/01/07 01:26:43;;;;;;;12.10;4.72;;;;;;;-142.75;100.00;78251.72;5032740;28;20352;-66
2022/01/07 01:29:08;;;;;;;16.37;5.20;;;;;;;-142.75;100.00;78243.84;5032638;28;20033;-66
2022/01/07 01:31:53;;;;;;;11.20;4.90;;;;;;;-142.75;100.00;78243.84;5014965;28;20326;-66
2022/01/07 01:34:18;;;;;;;10.90;5.10;;;;;;;-142.75;100.00;78243.84;5032830;28;20268;-66
2022/01/07 01:36:45;;;;;;;13.32;5.20;;;;;;;-142.75;100.00;78241.88;5032710;28;20048;-66
2022/01/07 01:39:12;;;;;;;14.03;4.60;;;;;;;-142.75;100.00;78241.88;5014733;28;20075;-67
2022/01/07 01:41:38;;;;;;;14.20;5.20;;;;;;;-142.75;100.00;78235.97;5032579;28;20482;-66
2022/01/07 01:44:03;;;;;;;14.93;4.97;;;;;;;-142.75;100.00;78232.03;5032430;28;20116;-68
2022/01/07 01:46:29;;;;;;;17.92;5.47;;;;;;;-142.75;100.00;78224.16;5032383;28;20081;-66
2022/01/07 01:48:54;;;;;;;20.77;5.70;;;;;;;-142.75;100.00;78224.16;5032249;28;20052;-66
2022/01/07 01:51:20;;;;;;;12.00;5.07;;;;;;;-142.75;100.00;78202.50;5032328;28;20325;-66
2022/01/07 01:53:45;;;;;;;18.73;6.40;;;;;;;-142.75;100.00;78204.47;5032382;28;20096;-66
2022/01/07 01:56:11;;;;;;;14.27;5.45;;;;;;;-142.75;100.00;78198.56;5032144;28;20481;-66
2022/01/07 01:58:36;;;;;;;12.38;5.53;;;;;;;-142.75;100.00;78198.56;5032110;28;20025;-66
2022/01/07 02:01:02;;;;;;;12.48;6.05;;;;;;;-142.75;100.00;78196.59;5032176;28;20013;-66
2022/01/07 02:03:27;;;;;;;12.95;6.57;;;;;;;-142.75;100.00;78184.78;5014522;28;20125;-66
2022/01/07 02:05:54;;;;;;;16.92;6.65;;;;;;;-142.75;100.00;78184.78;5031926;28;20036;-66
2022/01/07 02:08:19;;;;;;;17.93;6.40;;;;;;;-142.75;100.00;78180.81;5031731;28;20171;-66
2022/01/07 02:10:44;;;;;;;15.50;6.40;;;;;;;-142.75;100.00;78178.84;5032025;28;20526;-66
2022/01/07 02:13:10;;;;;;;14.30;6.72;;;;;;;-142.75;100.00;78165.06;5014274;28;20060;-66
2022/01/07 02:15:37;;;;;;;14.93;6.78;;;;;;;-142.75;100.00;78174.91;5031729;28;20083;-66
2022/01/07 02:18:03;;;;;;;12.93;6.50;;;;;;;-142.75;100.00;78167.03;5031761;28;20071;-66
2022/01/07 02:20:28;;;;;;;18.88;7.88;;;;;;;-142.75;100.00;78161.13;5031720;28;20021;-66
2022/01/07 02:22:55;;;;;;;12.07;7.13;;;;;;;-142.75;100.00;78161.13;5031810;28;20017;-66
2022/01/07 02:25:22;;;;;;;13.77;7.63;;;;;;;-142.75;100.00;78163.09;5013823;28;20014;-66
2022/01/07 02:27:47;;;;;;;14.90;7.83;;;;;;;-142.75;100.00;78151.28;5031669;28;20055;-64
2022/01/07 02:30:17;;;;;;;12.40;7.07;;;;;;;-142.75;100.00;78157.19;5031639;28;20053;-66
2022/01/07 02:32:43;;;;;;;21.03;7.50;;;;;;;-142.75;100.00;78141.44;5031573;28;20053;-66
2022/01/07 02:35:09;;;;;;;13.25;7.97;;;;;;;-142.75;100.00;78149.31;5031313;28;20056;-66
2022/01/07 02:37:35;;;;;;;17.65;6.80;;;;;;;-142.75;100.00;78137.50;5013973;28;20138;-66
2022/01/07 02:40:00;;;;;;;;;;;;;;;-142.75;100.00;78149.31;5031702;28;20021;-66
2022/01/07 02:42:25;;;;;;;19.97;7.37;;;;;;;-142.75;100.00;78153.25;5013821;28;20428;-66
2022/01/07 02:44:51;;;;;;;12.75;7.70;;;;;;;-142.75;100.00;78143.41;5031344;28;20022;-66
2022/01/07 02:47:17;;;;;;;17.02;7.55;;;;;;;-142.75;100.00;78131.59;5031387;28;20021;-66
2022/01/07 02:49:42;;;;;;;15.48;7.57;;;;;;;-142.75;100.00;78137.50;5031139;28;20033;-66
2022/01/07 02:52:08;;;;;;;16.97;8.00;;;;;;;-142.75;100.00;78137.50;5031496;28;20109;-66
2022/01/07 02:54:33;;;;;;;15.83;7.63;;;;;;;-142.75;100.00;78125.69;5013468;28;20621;-66
2022/01/07 02:56:58;;;;;;;15.35;7.30;;;;;;;-142.75;100.00;78119.78;5031276;28;20021;-66
2022/01/07 02:59:24;;;;;;;16.10;7.40;;;;;;;-142.75;100.00;78121.75;5030983;28;20044;-66
2022/01/07 03:01:49;;;;;;;16.75;8.20;;;;;;;-142.75;100.00;78109.94;5013371;28;20494;-66
2022/01/07 03:04:14;;;;;;;15.38;8.27;;;;;;;-142.75;100.00;78111.91;5013625;28;20021;-66
2022/01/07 03:06:40;;;;;;;12.50;7.68;;;;;;;-142.75;100.00;78106.00;5031073;28;20051;-67
2022/01/07 03:09:07;;;;;;;14.40;8.63;;;;;;;-142.75;100.00;78106.00;5030813;28;20360;-66
2022/01/07 03:11:32;;;;;;;;;;;;;;;-142.75;100.00;78094.19;5031542;28;20024;-65
2022/01/07 03:13:58;;;;;;;17.40;8.73;;;;;;;-142.75;100.00;78090.25;5013318;28;20338;-66
2022/01/07 03:16:23;;;;;;;20.77;9.43;;;;;;;-142.75;100.00;78094.19;5030814;28;20036;-66
2022/01/07 03:18:49;;;;;;;15.35;9.48;;;;;;;-142.75;100.00;78082.38;5030580;28;20672;-66
2022/01/07 03:21:14;;;;;;;15.35;9.45;;;;;;;-142.75;100.00;78078.44;5031003;28;20021;-66
2022/01/07 03:23:40;;;;;;;14.48;8.60;;;;;;;-142.75;100.00;78080.41;5030965;28;20014;-66
2022/01/07 03:26:07;;;;;;;16.52;9.40;;;;;;;-142.75;100.00;78068.59;5030976;28;20021;-66
2022/01/07 03:28:32;;;;;;;18.73;9.60;;;;;;;-142.75;100.00;78070.56;5030428;28;20022;-66
2022/01/07 03:30:58;;;;;;;17.75;9.60;;;;;;;-142.75;100.00;78064.66;5030890;28;20052;-66
2022/01/07 03:33:23;;;;;;;18.15;9.75;;;;;;;-142.75;100.00;78060.72;5013086;28;20052;-66
2022/01/07 03:35:49;;;;;;;17.85;10.63;;;;;;;-142.75;100.00;78054.81;5034119;28;20026;-66
2022/01/07 03:38:15;;;;;;;16.52;9.98;;;;;;;-142.75;100.00;78058.72;5034661;28;20037;-66
2022/01/07 03:40:40;;;;;;;17.90;9.90;;;;;;;-142.75;100.00;78062.69;5017192;28;20017;-67
2022/01/07 03:43:06;;;;;;;16.17;10.07;;;;;;;-142.75;100.00;78054.81;5034863;28;20037;-65
2022/01/07 03:45:31;;;;;;;18.85;9.32;;;;;;;-142.75;100.00;78056.78;5034761;28;20083;-66
2022/01/07 03:47:57;;;;;;;15.10;10.38;;;;;;;-142.75;100.00;78054.81;5034418;28;20017;-66
2022/01/07 03:50:25;;;;;;;13.70;9.98;;;;;;;-142.75;100.00;78054.81;5016820;28;20459;-66
2022/01/07 03:52:52;;;;;;;16.90;10.57;;;;;;;-142.75;100.00;78046.91;5016747;28;20024;-66
2022/01/07 03:55:20;;;;;;;18.80;10.60;;;;;;;-142.75;100.00;78041.00;5034470;28;20028;-66
2022/01/07 03:57:46;;;;;;;22.03;11.43;;;;;;;-142.75;100.00;78041.00;5034481;28;20036;-66
2022/01/07 04:00:16;;;;;;;21.75;11.55;;;;;;;-142.75;100.00;78027.22;5034373;28;20030;-66
2022/01/07 04:02:42;;;;;;;22.50;10.87;;;;;;;-142.75;100.00;78015.41;5014776;28;20018;-66
2022/01/07 04:05:08;;;;;;;15.67;10.37;;;;;;;-142.75;100.00;78011.47;5014692;28;20028;-66
2022/01/07 04:07:34;;;;;;;;;;;;;;;-142.75;100.00;78001.63;4997539;28;20009;-66
2022/01/07 04:10:00;;;;;;;19.07;11.40;;;;;;;-142.75;100.00;78003.59;4996711;28;19913;-66
2022/01/07 04:12:26;;;;;;;21.88;11.60;;;;;;;-142.75;100.00;78005.56;4996975;28;20057;-66
2022/01/07 04:15:02;;;;;;;20.23;10.68;;;;;;;-142.75;100.00;78009.50;4996708;28;20041;-66
2022/01/07 04:17:28;;;;;;;21.15;11.80;;;;;;;-142.75;100.00;77997.69;5014496;28;20022;-66
2022/01/07 04:19:53;;;;;;;19.58;10.98;;;;;;;-142.75;100.00;77987.84;5014199;28;20479;-66
2022/01/07 04:22:19;;;;;;;19.55;11.10;;;;;;;-142.75;100.00;77989.81;5014420;28;20045;-66
2022/01/07 04:24:44;;;;;;;20.00;11.38;;;;;;;-142.75;100.00;77991.78;5014258;28;20014;-66
2022/01/07 04:27:09;;;;;;;20.50;11.57;;;;;;;-142.75;100.00;77991.78;5014179;28;20032;-66
2022/01/07 04:29:34;;;;;;;21.30;12.10;;;;;;;-142.75;100.00;77976.03;5013994;28;20268;-66
2022/01/07 04:32:01;;;;;;;22.23;11.03;;;;;;;-142.75;100.00;77968.16;5014184;28;20285;-66
2022/01/07 04:34:27;;;;;;;20.30;11.40;;;;;;;-142.75;100.00;77974.06;4996382;28;20145;-66
2022/01/07 04:36:52;;;;;;;17.60;11.05;;;;;;;-142.75;100.00;77972.09;5014140;28;20017;-66
2022/01/07 04:39:17;;;;;;;22.23;11.13;;;;;;;-142.75;100.00;77970.13;4996307;28;20105;-66
2022/01/07 04:41:43;;;;;;;23.27;11.10;;;;;;;-142.75;100.00;77964.22;5014002;28;20498;-66
2022/01/07 04:44:08;;;;;;;19.20;10.40;;;;;;;-142.75;100.00;77962.25;4996384;28;20029;-66
2022/01/07 04:46:33;;;;;;;17.33;10.60;;;;;;;-142.75;100.00;77968.16;4996261;28;20495;-66
2022/01/07 04:48:59;;;;;;;24.38;9.80;;;;;;;-142.75;100.00;77954.38;5013524;28;20021;-66
2022/01/07 04:51:24;;;;;;;16.23;10.48;;;;;;;-142.75;100.00;77948.47;5013968;28;20025;-66
2022/01/07 04:53:49;;;;;;;18.00;10.68;;;;;;;-142.75;100.00;77946.50;5013760;28;20390;-66
2022/01/07 04:56:14;;;;;;;20.38;10.52;;;;;;;-142.75;100.00;77936.66;5013701;28;20018;-66
2022/01/07 04:58:40;;;;;;;20.02;10.05;;;;;;;-142.75;100.00;77938.63;4995757;28;20026;-66
2022/01/07 05:01:05;;;;;;;14.32;9.52;;;;;;;-142.75;100.00;77930.75;4995883;28;20029;-66
2022/01/07 05:03:30;;;;;;;20.42;9.77;;;;;;;-142.75;100.00;77924.84;5013744;28;20053;-66
2022/01/07 05:06:11;;;;;;;17.70;9.57;;;;;;;-142.75;100.00;77922.88;4996037;28;20017;-66
2022/01/07 05:08:36;;;;;;;15.90;9.50;;;;;;;-142.75;100.00;77913.03;5012805;28;20276;-66
2022/01/07 05:11:01;;;;;;;14.70;9.57;;;;;;;-142.75;100.00;77913.03;4996033;28;20048;-66
2022/01/07 05:13:27;;;;;;;17.40;8.73;;;;;;;-142.75;100.00;77913.03;5013480;28;20025;-66
2022/01/07 05:15:52;;;;;;;20.48;8.05;;;;;;;-142.75;100.00;77920.91;5012943;28;20296;-66
2022/01/07 05:18:17;;;;;;;18.75;9.38;;;;;;;-142.75;100.00;77924.84;4995586;28;20038;-66
2022/01/07 05:20:43;;;;;;;16.20;8.97;;;;;;;-142.75;100.00;77926.81;5013351;28;20022;-66
2022/01/07 05:23:08;;;;;;;19.00;9.60;;;;;;;-142.75;100.00;77911.06;4995882;28;20384;-66
2022/01/07 05:25:34;;;;;;;16.33;9.05;;;;;;;-142.75;100.00;77913.03;4995516;28;20053;-66
2022/01/07 05:28:00;;;;;;;22.75;9.57;;;;;;;-142.75;100.00;77909.06;5012973;28;20463;-66
2022/01/07 05:30:25;;;;;;;19.73;9.85;;;;;;;-142.75;100.00;77903.16;5013077;28;20049;-66
2022/01/07 05:32:50;;;;;;;21.02;10.52;;;;;;;-142.75;100.00;77915.00;5013065;28;20475;-66
2022/01/07 05:35:15;;;;;;;15.63;9.98;;;;;;;-142.75;100.00;77907.09;5012964;28;20083;-66
2022/01/07 05:37:41;;;;;;;16.70;9.38;;;;;;;-142.75;100.00;77909.06;5012920;28;20049;-67
2022/01/07 05:40:07;;;;;;;16.37;10.37;;;;;;;-142.75;100.00;77903.16;5012754;28;20053;-66
2022/01/07 05:42:32;;;;;;;18.70;10.18;;;;;;;-142.75;100.00;77897.25;5012823;28;20363;-66
2022/01/07 05:44:57;;;;;;;19.42;10.38;;;;;;;-142.75;100.00;77897.25;5012813;28;20093;-66
2022/01/07 05:47:23;;;;;;;15.35;9.77;;;;;;;-142.75;100.00;77895.28;5012914;28;20040;-67
2022/01/07 05:49:48;;;;;;;21.88;9.63;;;;;;;-142.75;100.00;77887.41;5012608;28;20089;-66
2022/01/07 05:52:13;;;;;;;18.10;10.13;;;;;;;-142.75;100.00;77887.41;4995334;28;20037;-66
2022/01/07 05:54:39;;;;;;;19.03;9.13;;;;;;;-142.75;100.00;77887.41;5012485;28;20265;-66
2022/01/07 05:57:06;;;;;;;13.65;8.65;;;;;;;-142.75;100.00;77889.38;4994577;28;20639;-66
2022/01/07 05:59:31;;;;;;;17.03;9.07;;;;;;;-142.75;100.00;77885.44;5012196;28;20021;-66
2022/01/07 06:01:56;;;;;;;15.17;8.63;;;;;;;-142.75;100.00;77885.44;5012661;28;20021;-66
2022/01/07 06:04:21;;;;;;;13.73;8.07;;;;;;;-142.75;100.00;77891.34;5012469;28;20693;-66
2022/01/07 06:06:47;;;;;;;19.88;9.70;;;;;;;-142.75;100.00;77887.41;5012404;28;20022;-66
2022/01/07 06:09:12;;;;;;;20.87;9.07;;;;;;;-142.75;100.00;77891.34;5012090;28;20372;-66
2022/01/07 06:11:37;;;;;;;18.03;8.73;;;;;;;-142.75;100.00;77885.44;5012377;28;20272;-66
2022/01/07 06:14:02;;;;;;;15.88;8.73;;;;;;;-142.75;100.00;77881.50;5012410;28;20068;-65
2022/01/07 06:16:28;;;;;;;15.80;9.10;;;;;;;-142.75;100.00;77875.59;5012111;28;20085;-66
2022/01/07 06:18:59;;;;;;;15.23;8.68;;;;;;;-142.75;100.00;77871.66;5012020;28;20383;-66
2022/01/07 06:21:25;;;;;;;22.70;8.00;;;;;;;-142.75;100.00;77859.84;5012391;28;20017;-66
2022/01/07 06:23:50;;;;;;;;;;;;;;;-142.75;100.00;77875.59;5012624;28;20032;-66
2022/01/07 06:26:16;;;;;;;15.83;8.63;;;;;;;-142.75;100.00;77863.78;4994454;28;20008;-66
2022/01/07 06:28:42;;;;;;;14.65;8.90;;;;;;;-142.75;100.00;77867.72;5011722;28;20030;-66
2022/01/07 06:31:07;;;;;;;23.10;10.55;;;;;;;-142.75;100.00;77859.84;5012137;28;20025;-66
2022/01/07 06:33:32;;;;;;;17.92;9.80;;;;;;;-142.75;100.00;77857.88;4999867;28;20044;-66
2022/01/07 06:35:58;;;;;;;20.73;10.77;;;;;;;-142.75;100.00;77857.88;5025561;28;20432;-66
2022/01/07 06:38:23;;;;;;;19.65;9.82;;;;;;;-142.75;100.00;77846.06;5011715;28;20021;-66
2022/01/07 06:40:48;;;;;;;18.13;9.35;;;;;;;-142.75;100.00;77850.00;5011815;28;20014;-66
2022/01/07 06:43:14;;;;;;;22.77;9.95;;;;;;;-142.75;100.00;77846.06;5011824;28;20386;-66
2022/01/07 06:45:39;;;;;;;14.73;8.93;;;;;;;-142.75;100.00;77846.06;5011755;28;20034;-66
2022/01/07 06:48:04;;;;;;;17.30;9.20;;;;;;;-142.75;100.00;77850.00;4993867;28;20335;-66
2022/01/07 06:50:30;;;;;;;17.98;9.82;;;;;;;-142.75;100.00;77848.03;4994299;28;20014;-66
2022/01/07 06:52:55;;;;;;;23.88;9.90;;;;;;;-142.75;100.00;77850.00;4994044;28;20022;-66
2022/01/07 06:55:21;;;;;;;17.40;9.93;;;;;;;-142.75;100.00;77850.00;5011597;28;20446;-66
2022/01/07 06:57:46;;;;;;;14.77;9.35;;;;;;;-142.75;100.00;77842.13;5011397;28;20032;-65
2022/01/07 07:00:12;;;;;;;19.05;10.00;;;;;;;-142.75;100.00;77848.03;5011645;28;20029;-66
2022/01/07 07:02:37;;;;;;;15.65;9.13;;;;;;;-142.75;100.00;77855.91;5011618;28;20041;-66
2022/01/07 07:05:03;;;;;;;21.93;9.13;;;;;;;-142.75;100.00;77861.81;5011626;28;20030;-66
2022/01/07 07:07:28;;;;;;;19.40;8.48;;;;;;;-142.75;100.00;77857.88;5011567;28;20094;-66
2022/01/07 07:09:53;;;;;;;16.20;9.00;;;;;;;-142.75;100.00;77855.91;5010296;28;20026;-66
2022/01/07 07:12:19;;;;;;;17.40;8.43;;;;;;;-142.75;100.00;77844.09;5011487;28;20028;-66
2022/01/07 07:14:44;;;;;;;13.25;7.13;;;;;;;-142.75;100.00;77844.09;4993446;28;21134;-66
2022/01/07 07:17:12;;;;;;;22.13;7.30;;;;;;;-142.75;100.00;77853.94;5011517;28;20546;-66
2022/01/07 07:19:37;;;;;;;16.13;7.43;;;;;;;-142.75;100.00;77853.94;5010979;28;20459;-66
2022/01/07 07:22:03;;;;;;;11.88;6.63;;;;;;;-142.75;100.00;77850.00;4993832;28;20033;-66
2022/01/07 07:24:28;;;;;;;14.88;7.18;;;;;;;-142.75;100.00;77850.00;5011128;28;20080;-66
2022/01/07 07:26:53;;;;;;;19.23;8.17;;;;;;;-142.75;100.00;77846.06;5011257;28;20030;-66
2022/01/07 07:29:19;;;;;;;16.20;7.10;;;;;;;-142.75;100.00;77850.00;5011008;28;20280;-66
2022/01/07 07:31:49;;;;;;;12.75;7.63;;;;;;;-142.75;100.00;77844.09;5011243;28;20018;-66
2022/01/07 07:36:59;;;;;;;15.90;7.40;;;;;;;-142.75;100.00;77842.13;5012210;28;20026;-66
2022/01/07 07:39:24;;;;;;;16.47;8.27;;;;;;;-142.75;100.00;77842.13;5011815;28;20065;-66
2022/01/07 07:41:49;;;;;;;17.48;7.50;;;;;;;-142.75;100.00;77832.28;4994910;28;20661;-68
2022/01/07 07:44:15;;;;;;;17.85;7.30;;;;;;;-142.75;100.00;77838.19;5012566;28;20563;-65
2022/01/07 07:46:41;;;;;;;12.50;6.90;;;;;;;-142.75;100.00;77857.88;5012471;28;20021;-66
2022/01/07 07:49:07;;;;;;;15.32;7.28;;;;;;;-142.75;100.00;77861.81;5010381;28;20022;-66
2022/01/07 07:51:33;;;;;;;18.20;7.37;;;;;;;-142.75;100.00;77867.72;5009899;28;20052;-66
2022/01/07 07:53:58;;;;;;;14.73;7.90;;;;;;;-142.75;100.00;77869.69;4992243;28;20444;-66
2022/01/07 07:56:25;;;;;;;16.23;6.82;;;;;;;-142.75;100.00;77869.69;5009670;28;20454;-66
2022/01/07 07:58:51;;;;;;;16.10;7.90;;;;;;;-142.75;100.00;77877.56;5009165;28;20021;-66
2022/01/07 08:01:17;;;;;;;21.88;7.53;;;;;;;-142.75;100.00;77881.50;5009916;28;20517;-66
2022/01/07 08:03:43;;;;;;;15.30;7.77;;;;;;;-142.75;100.00;77879.53;5009657;28;20475;-67
2022/01/07 08:06:09;;;;;;;21.85;9.23;;;;;;;-142.75;100.00;77881.50;5009630;28;20033;-66
2022/01/07 08:08:34;;;;;;;14.25;7.95;;;;;;;-142.75;100.00;77889.38;5009723;28;20030;-66
2022/01/07 08:11:02;;;;;;;17.58;8.10;;;;;;;-142.75;100.00;77889.38;5009721;28;20020;-65
2022/01/07 08:13:29;;;;;;;19.63;7.70;;;;;;;-142.75;100.00;77885.44;5009712;28;20084;-66
2022/01/07 08:16:00;;;;;;;17.00;7.90;;;;;;;-142.75;100.00;77893.31;5009523;28;20030;-65
2022/01/07 08:18:30;;;;;;;20.63;7.17;;;;;;;-142.75;100.00;77891.34;5008941;28;20441;-66
2022/01/07 08:20:59;;;;;;;13.33;7.03;;;;;;;-142.75;100.00;77889.38;5011301;28;20018;-66
2022/01/07 08:23:24;;;;;;;14.33;7.87;;;;;;;-142.75;100.00;77881.50;5013411;28;20391;-66
2022/01/07 08:25:50;;;;;;;13.30;6.78;;;;;;;-142.75;100.00;77879.53;5013132;28;20025;-66
2022/01/07 08:28:17;;;;;;;15.68;6.70;;;;;;;-142.75;100.00;77871.66;4995528;28;20069;-65
2022/01/07 08:31:26;;;;;;;15.63;6.63;;;;;;;-142.75;100.00;77877.56;4995737;28;20028;-66
2022/01/07 08:36:32;;;;;;;18.60;6.87;;;;;;;-142.75;100.00;77887.41;5012963;28;20052;-66
2022/01/07 08:38:59;;;;;;;17.73;6.60;;;;;;;-142.75;100.00;77877.56;5011897;28;20378;-66
2022/01/07 08:41:30;;;;;;;14.17;6.73;;;;;;;-142.75;100.00;77869.69;5012864;28;20101;-67
2022/01/07 08:43:55;;;;;;;18.03;6.77;;;;;;;-142.75;100.00;77867.72;5010800;28;20380;-65
2022/01/07 08:46:21;;;;;;;22.02;7.35;;;;;;;-142.75;100.00;77842.13;4994938;28;20010;-65
2022/01/07 08:48:46;;;;;;;15.88;7.25;;;;;;;-142.75;100.00;77828.34;5018969;28;20018;-65
2022/01/07 08:51:12;;;;;;;13.18;6.28;;;;;;;-142.75;100.00;77798.81;4995187;28;20113;-66
2022/01/07 08:53:37;;;;;;;11.98;6.32;;;;;;;-142.75;100.00;77783.06;5012780;28;20037;-66
2022/01/07 08:56:04;;;;;;;21.52;6.50;;;;;;;-142.75;100.00;77755.50;4995019;28;20025;-66
2022/01/07 08:58:30;;;;;;;13.93;6.53;;;;;;;-142.75;100.00;77749.59;5012288;28;20050;-65
2022/01/07 09:00:58;;;;;;;11.55;5.63;;;;;;;-142.75;100.00;77720.03;4994906;28;20040;-66
2022/01/07 09:03:24;;;;;;;16.27;5.37;;;;;;;-142.75;100.00;77722.00;5012359;28;20493;-66
2022/01/07 09:05:50;;;;;;;14.60;6.20;;;;;;;-142.75;100.00;77729.88;5012485;28;20367;-65
2022/01/07 09:08:16;;;;;;;18.45;6.10;;;;;;;-142.75;100.00;77702.31;5012153;28;20018;-65
2022/01/07 09:10:42;;;;;;;13.95;5.68;;;;;;;-142.75;100.00;77696.41;4993577;28;20028;-65
2022/01/07 09:13:08;;;;;;;24.07;5.67;;;;;;;-142.75;100.00;77688.53;5010264;28;20029;-65
2022/01/07 09:15:34;;;;;;;19.05;6.05;;;;;;;-142.75;100.00;77690.50;5010145;28;20025;-66
2022/01/07 09:18:00;;;;;;;15.30;5.68;;;;;;;-142.75;100.00;77700.34;5011838;28;20463;-65
2022/01/07 09:20:26;;;;;;;17.02;5.70;;;;;;;-142.75;100.00;77708.22;5012021;28;20060;-66
2022/01/07 09:22:53;;;;;;;;;;;;;;;-142.75;100.00;77716.09;5010835;28;20041;-66
2022/01/07 09:25:18;;;;;;;12.05;5.43;;;;;;;-142.75;100.00;77696.41;4992151;28;19909;-66
2022/01/07 09:27:44;;;;;;;20.85;5.82;;;;;;;-142.75;100.00;77670.81;5010158;28;20429;-66
2022/01/07 09:30:13;;;;;;;14.50;7.82;;;;;;;-142.75;100.00;77627.50;4992566;28;20025;-66
2022/01/07 09:32:39;;;;;;;13.20;5.50;;;;;;;-142.75;100.00;77609.78;4992058;28;20022;-66
2022/01/07 09:35:05;;;;;;;12.80;4.60;;;;;;;-142.75;100.00;77651.13;5011722;28;20029;-66
2022/01/07 09:37:30;;;;;;;22.37;8.63;;;;;;;-142.75;100.00;77635.38;5011809;28;20032;-65
2022/01/07 09:39:56;;;;;;;17.15;5.50;;;;;;;-142.75;100.00;77623.56;4994049;28;20021;-66
2022/01/07 09:42:21;;;;;;;15.10;4.63;;;;;;;-142.75;100.00;77629.47;5011773;28;20018;-66
2022/01/07 09:44:48;;;;;;;15.80;7.57;;;;;;;-142.75;100.00;77659.00;4994080;28;20021;-66
2022/01/07 09:47:13;;;;;;;25.83;13.30;;;;;;;-142.75;100.00;77662.94;5011151;28;20022;-66
2022/01/07 09:49:40;;;;;;;14.00;5.38;;;;;;;-142.75;100.00;77637.34;5011556;28;20475;-66
2022/01/07 09:52:06;;;;;;;11.67;5.43;;;;;;;-142.75;100.00;77647.19;5011342;28;20080;-67
2022/01/07 09:54:37;;;;;;;12.15;5.80;;;;;;;-142.75;100.00;77603.88;5011067;28;20022;-66
2022/01/07 09:57:04;;;;;;;15.03;7.90;;;;;;;-142.75;100.00;77580.25;5011180;28;20053;-65
2022/01/07 09:59:30;;;;;;;11.40;4.40;;;;;;;-142.75;100.00;77503.47;5011158;28;20111;-65
2022/01/07 10:01:58;;;;;;;9.68;4.32;;;;;;;-142.75;100.00;77458.16;5011053;28;20482;-67
2022/01/07 10:04:31;;;;;;;11.07;4.37;;;;;;;-142.75;100.00;77397.13;5011318;28;20411;-66
2022/01/07 10:07:20;;;;;;;8.73;3.70;;;;;;;-142.75;100.00;77343.97;4993485;28;20374;-66
2022/01/07 10:10:05;;;;;;;8.67;3.83;;;;;;;-142.75;100.00;77334.13;5010859;28;20044;-66
2022/01/07 10:12:56;;;;;;;10.63;3.20;;;;;;;-142.75;100.00;77314.44;5010976;28;20033;-66
2022/01/07 10:15:24;;;;;;;7.93;3.20;;;;;;;-142.75;100.00;77306.56;5010918;28;20410;-65
2022/01/07 10:17:58;;;;;;;15.83;3.47;;;;;;;-142.75;100.00;77310.50;5010309;28;20073;-66
2022/01/07 10:20:33;;;;;;;7.53;3.40;;;;;;;-142.75;100.00;77279.00;4992886;28;20053;-66
2022/01/07 10:23:24;;;;;;;9.80;3.33;;;;;;;-142.75;100.00;77280.97;5011115;28;20072;-66
2022/01/07 10:25:56;;;;;;;12.23;3.57;;;;;;;-142.75;100.00;77257.34;5010993;28;20485;-66
2022/01/07 10:28:29;;;;;;;9.33;3.40;;;;;;;-142.75;100.00;77225.84;5009535;28;20021;-66
2022/01/07 10:30:55;;;;;;;8.57;2.90;;;;;;;-142.75;100.00;77202.22;5011055;28;20105;-66
2022/01/07 10:33:24;;;;;;;;;;;;;;;-142.75;100.00;77192.38;5011078;28;20014;-66
2022/01/07 10:35:55;;;;;;;8.40;2.47;;;;;;;-142.75;100.00;77149.06;5010674;28;19917;-66
2022/01/07 10:38:26;;;;;;;13.23;3.17;;;;;;;-142.75;100.00;77095.91;5010323;28;20060;-66
2022/01/07 10:40:54;;;;;;;15.07;2.35;;;;;;;-142.75;100.00;77064.41;5010798;28;20022;-66
2022/01/07 10:43:22;;;;;;;6.75;1.90;;;;;;;-142.75;100.00;77054.56;5010808;28;20054;-66
2022/01/07 10:45:50;;;;;;;7.25;2.03;;;;;;;-142.75;100.00;77038.81;5010509;28;20022;-66
2022/01/07 10:48:18;;;;;;;12.10;2.10;;;;;;;-142.75;100.00;77011.25;5009628;28;20025;-67
2022/01/07 10:50:49;;;;;;;16.17;2.33;;;;;;;-142.75;100.00;76987.63;5010835;28;20111;-68
2022/01/07 10:53:16;;;;;;;9.07;2.20;;;;;;;-142.75;100.00;77023.06;5010737;28;20431;-66
2022/01/07 10:55:57;;;;;;;10.85;2.20;;;;;;;-142.75;100.00;77164.81;5010361;28;20024;-66
2022/01/07 10:58:23;;;;;;;10.02;2.05;;;;;;;-142.75;100.00;77156.94;5010277;28;20049;-67
2022/01/07 11:00:48;;;;;;;9.68;1.70;;;;;;;-142.75;100.00;77139.22;4990275;28;20495;-68
2022/01/07 11:03:13;;;;;;;11.45;2.17;;;;;;;-142.75;100.00;77133.31;4991546;28;20494;-68
2022/01/07 11:05:39;;;;;;;12.57;2.20;;;;;;;-142.75;100.00;77117.56;5010260;28;20024;-67